createdAt,value
2018-11-10T00:01:36.000Z,49.8
2018-11-10T00:11:35.000Z,49.4
2018-11-10T00:31:39.000Z,49.6
2018-11-10T00:41:35.000Z,49.3
2018-11-10T00:51:35.000Z,49.3
2018-11-10T01:01:35.000Z,49.1
2018-11-10T01:11:35.000Z,49.2
2018-11-10T01:21:36.000Z,49.1
2018-11-10T01:31:35.000Z,49.3
2018-11-10T01:41:39.000Z,49.2
2018-11-10T01:51:35.000Z,48.9
2018-11-10T02:01:35.000Z,48.8
2018-11-10T02:11:35.000Z,48.7
2018-11-10T02:21:35.000Z,48.7
2018-11-10T02:31:35.000Z,48.7
2018-11-10T02:41:35.000Z,48.5
2018-11-10T02:51:37.000Z,48.5
2018-11-10T03:01:35.000Z,48.3
2018-11-10T03:11:35.000Z,48.1
2018-11-10T03:21:35.000Z,48
2018-11-10T03:31:35.000Z,48
2018-11-10T03:41:35.000Z,47.7
2018-11-10T03:51:35.000Z,47.5
2018-11-10T04:01:36.000Z,47.8
2018-11-10T04:11:35.000Z,48.1
2018-11-10T04:21:35.000Z,48.1
2018-11-10T04:31:35.000Z,47.7
2018-11-10T04:41:35.000Z,47.6
2018-11-10T05:01:35.000Z,47.7
2018-11-10T05:11:35.000Z,47.8
2018-11-10T05:21:35.000Z,47.8
2018-11-10T05:31:35.000Z,48
2018-11-10T05:41:36.000Z,48
2018-11-10T05:51:36.000Z,48
2018-11-10T06:01:36.000Z,47.8
2018-11-10T06:11:36.000Z,47.6
2018-11-10T06:21:36.000Z,47.7
2018-11-10T06:31:36.000Z,47.6
2018-11-10T06:41:36.000Z,47.1
2018-11-10T06:51:36.000Z,47.2
2018-11-10T07:01:36.000Z,47.9
2018-11-10T07:11:36.000Z,48.3
2018-11-10T07:21:36.000Z,48.8
2018-11-10T07:31:36.000Z,49.4
2018-11-10T07:41:36.000Z,51.7
2018-11-10T07:51:36.000Z,51.7
2018-11-10T08:01:36.000Z,52.1
2018-11-10T08:11:36.000Z,52.7
2018-11-10T08:21:36.000Z,56.9
2018-11-10T08:31:36.000Z,57.3
2018-11-10T08:41:36.000Z,57.3
2018-11-10T08:51:36.000Z,57.5
2018-11-10T09:01:36.000Z,57.7
2018-11-10T09:11:36.000Z,58.5
2018-11-10T09:21:36.000Z,58.2
2018-11-10T09:31:36.000Z,58.2
2018-11-10T09:41:36.000Z,58.1
2018-11-10T09:51:36.000Z,57.8
2018-11-10T10:01:36.000Z,57.4
2018-11-10T10:11:36.000Z,57.6
2018-11-10T10:21:36.000Z,57.8
2018-11-10T10:31:36.000Z,57.8
2018-11-10T10:41:36.000Z,57.8
2018-11-10T10:51:36.000Z,57.8
2018-11-10T11:01:36.000Z,57.8
2018-11-10T11:11:36.000Z,57.9
2018-11-10T11:21:36.000Z,57.8
2018-11-10T11:31:36.000Z,57.9
2018-11-10T11:41:36.000Z,57.8
2018-11-10T11:51:36.000Z,57.7
2018-11-10T12:01:36.000Z,57.6
2018-11-10T12:11:36.000Z,57.7
2018-11-10T12:21:36.000Z,57.7
2018-11-10T12:31:37.000Z,57.7
2018-11-10T12:41:37.000Z,57.6
2018-11-10T12:51:37.000Z,57.7
2018-11-10T13:01:37.000Z,57.6
2018-11-10T13:11:37.000Z,57.6
2018-11-10T13:21:37.000Z,57.6
2018-11-10T13:31:37.000Z,57.6
2018-11-10T13:41:37.000Z,57.6
2018-11-10T13:51:37.000Z,57.6
2018-11-10T14:01:37.000Z,57.7
2018-11-10T14:11:37.000Z,57.6
2018-11-10T14:21:37.000Z,57.6
2018-11-10T14:31:37.000Z,58.1
2018-11-10T14:41:37.000Z,58.8
2018-11-10T14:51:37.000Z,60.1
2018-11-10T15:01:37.000Z,60
2018-11-10T15:11:37.000Z,60.4
2018-11-10T15:21:37.000Z,60.5
2018-11-10T15:31:37.000Z,60.3
2018-11-10T15:41:37.000Z,60.2
2018-11-10T15:51:37.000Z,60.4
2018-11-10T16:11:37.000Z,60.4
2018-11-10T16:21:37.000Z,60.8
2018-11-10T16:31:37.000Z,60.9
2018-11-10T16:41:37.000Z,60.8
2018-11-10T16:51:37.000Z,60.8
2018-11-10T17:01:37.000Z,60.6
2018-11-10T17:11:37.000Z,60.4
2018-11-10T17:21:37.000Z,61.4
2018-11-10T17:31:39.000Z,61.5
2018-11-10T17:41:37.000Z,61.4
2018-11-10T17:51:37.000Z,61.6
2018-11-10T18:01:37.000Z,61.8
2018-11-10T18:11:37.000Z,61.6
2018-11-10T18:21:37.000Z,61.1
2018-11-10T18:31:37.000Z,60.8
2018-11-10T18:41:37.000Z,60.8
2018-11-10T18:51:37.000Z,60.9
2018-11-10T19:01:37.000Z,60.3
2018-11-10T19:11:37.000Z,59.7
2018-11-10T19:21:38.000Z,59.5
2018-11-10T19:31:38.000Z,61.7
2018-11-10T19:41:38.000Z,63.5
2018-11-10T19:51:38.000Z,63.9
2018-11-10T20:01:38.000Z,62.9
2018-11-10T20:11:38.000Z,62.9
2018-11-10T20:21:38.000Z,62.8
2018-11-10T20:31:38.000Z,62.8
2018-11-10T20:41:38.000Z,62.9
2018-11-10T20:51:38.000Z,63.6
2018-11-10T21:01:38.000Z,63.8
2018-11-10T21:11:38.000Z,64.4
2018-11-10T21:21:38.000Z,64.8
2018-11-10T21:31:38.000Z,64.9
2018-11-10T21:51:38.000Z,64.5
2018-11-10T22:01:38.000Z,64.2
2018-11-10T22:11:38.000Z,64.1
2018-11-10T22:21:38.000Z,64.6
2018-11-10T22:31:38.000Z,64.5
2018-11-10T22:41:38.000Z,64.1
2018-11-10T22:51:38.000Z,64.5
2018-11-10T23:01:38.000Z,64.2
2018-11-10T23:11:38.000Z,63.7
2018-11-10T23:21:38.000Z,57.2
2018-11-10T23:31:38.000Z,56.7
2018-11-10T23:41:38.000Z,56.7
2018-11-10T23:51:38.000Z,56.5
